createdAt,value
2024-05-09T00:00:52.936Z,88.08
2024-05-09T00:03:23.808Z,88.65
2024-05-09T00:05:54.933Z,91.10
2024-05-09T00:08:25.937Z,88.16
2024-05-09T00:10:57.153Z,88.48
2024-05-09T00:13:28.048Z,88.51
2024-05-09T00:15:59.449Z,89.48
2024-05-09T00:18:30.282Z,88.26
2024-05-09T00:21:01.886Z,89.43
2024-05-09T00:23:33.069Z,89.50
2024-05-09T00:26:04.640Z,89.75
2024-05-09T00:28:35.514Z,90.61
2024-05-09T00:31:06.845Z,90.54
2024-05-09T00:33:38.094Z,89.82
2024-05-09T00:36:09.366Z,89.85
2024-05-09T00:38:40.915Z,90.43
2024-05-09T00:41:12.033Z,90.05
2024-05-09T00:43:42.919Z,90.47
2024-05-09T00:46:14.087Z,91.81
2024-05-09T00:48:45.112Z,90.46
2024-05-09T00:51:16.841Z,92.69
2024-05-09T00:53:48.748Z,89.07
2024-05-09T00:56:23.006Z,91.55
2024-05-09T00:58:54.693Z,88.96
2024-05-09T01:01:26.558Z,89.13
2024-05-09T01:03:58.233Z,89.08
2024-05-09T01:06:29.501Z,88.02
2024-05-09T01:09:00.725Z,87.77
2024-05-09T01:11:42.063Z,89.55
2024-05-09T01:14:13.272Z,87.45
2024-05-09T01:16:44.783Z,86.61
2024-05-09T01:19:24.233Z,89.01
2024-05-09T01:21:55.548Z,86.94
2024-05-09T01:24:26.628Z,86.31
2024-05-09T01:26:57.994Z,86.47
2024-05-09T01:29:29.073Z,86.99
2024-05-09T01:32:05.879Z,86.11
2024-05-09T01:34:37.773Z,86.19
2024-05-09T01:37:09.151Z,85.89
2024-05-09T01:39:40.854Z,85.61
2024-05-09T01:42:12.150Z,85.51
2024-05-09T01:44:44.932Z,86.34
2024-05-09T01:47:16.417Z,85.56
2024-05-09T01:49:47.488Z,84.59
2024-05-09T01:52:18.723Z,86.00
2024-05-09T01:54:49.786Z,85.36
2024-05-09T01:57:21.137Z,85.33
2024-05-09T01:59:53.084Z,84.86
2024-05-09T02:02:24.420Z,84.21
2024-05-09T02:04:55.576Z,83.96
2024-05-09T02:07:27.351Z,84.79
2024-05-09T02:09:58.332Z,83.64
2024-05-09T02:12:29.672Z,83.61
2024-05-09T02:15:00.696Z,84.13
2024-05-09T02:17:32.190Z,83.42
2024-05-09T02:20:03.670Z,83.88
2024-05-09T02:22:37.258Z,83.48
2024-05-09T02:25:08.467Z,83.17
2024-05-09T02:27:39.685Z,83.50
2024-05-09T02:30:18.909Z,83.76
2024-05-09T02:32:57.543Z,83.03
2024-05-09T02:35:29.140Z,82.69
2024-05-09T02:38:01.413Z,82.86
2024-05-09T02:40:37.726Z,82.93
2024-05-09T02:43:13.403Z,83.07
2024-05-09T02:45:44.563Z,82.38
2024-05-09T02:48:16.097Z,83.28
2024-05-09T02:50:47.179Z,82.81
2024-05-09T02:53:19.003Z,82.66
2024-05-09T02:55:50.062Z,82.87
2024-05-09T02:58:21.609Z,82.52
2024-05-09T03:00:52.792Z,82.49
2024-05-09T03:03:24.490Z,83.15
2024-05-09T03:05:55.604Z,81.82
2024-05-09T03:08:29.007Z,81.71
2024-05-09T03:11:02.486Z,81.99
2024-05-09T03:13:33.835Z,81.75
2024-05-09T03:16:05.018Z,81.55
2024-05-09T03:18:36.409Z,81.33
2024-05-09T03:21:07.763Z,82.28
2024-05-09T03:23:44.955Z,82.43
2024-05-09T03:26:17.805Z,81.82
2024-05-09T03:28:49.174Z,81.46
2024-05-09T03:31:20.884Z,81.34
2024-05-09T03:33:52.463Z,81.57
2024-05-09T03:36:23.987Z,81.70
2024-05-09T03:38:55.153Z,81.57
2024-05-09T03:41:26.746Z,80.83
2024-05-09T03:43:58.129Z,81.41
2024-05-09T03:46:31.799Z,81.46
2024-05-09T03:49:03.260Z,81.37
2024-05-09T03:51:34.742Z,81.41
2024-05-09T03:54:06.339Z,81.37
2024-05-09T03:56:37.869Z,81.16
2024-05-09T03:59:09.230Z,81.24
2024-05-09T04:01:40.477Z,81.02
2024-05-09T04:04:12.435Z,81.00
2024-05-09T04:06:44.700Z,80.51
2024-05-09T04:09:17.627Z,80.34
2024-05-09T04:11:48.790Z,80.38
2024-05-09T04:14:21.524Z,80.51
2024-05-09T04:16:52.791Z,80.45
2024-05-09T04:19:26.826Z,80.50
2024-05-09T04:21:57.908Z,80.26
2024-05-09T04:24:29.231Z,80.21
2024-05-09T04:27:02.737Z,80.69
2024-05-09T04:29:37.519Z,80.66
2024-05-09T04:32:09.718Z,80.48
2024-05-09T04:34:43.591Z,80.41
2024-05-09T04:37:18.440Z,80.30
2024-05-09T04:39:50.085Z,80.44
2024-05-09T04:42:23.009Z,79.85
2024-05-09T04:44:58.292Z,80.08
2024-05-09T04:47:30.230Z,80.96
2024-05-09T04:50:01.883Z,79.78
2024-05-09T04:52:33.081Z,80.11
2024-05-09T04:55:04.450Z,79.56
2024-05-09T04:57:35.528Z,79.90
2024-05-09T05:00:14.330Z,79.57
2024-05-09T05:02:48.994Z,79.66
2024-05-09T05:05:23.367Z,79.82
2024-05-09T05:07:54.473Z,79.57
2024-05-09T05:10:29.697Z,79.61
2024-05-09T05:13:24.139Z,79.56
2024-05-09T05:15:59.707Z,79.48
2024-05-09T05:18:31.321Z,79.83
2024-05-09T05:21:03.429Z,79.10
2024-05-09T05:23:35.879Z,79.00
2024-05-09T05:26:07.650Z,79.23
2024-05-09T05:28:38.799Z,79.33
2024-05-09T05:31:10.255Z,79.45
2024-05-09T05:33:41.537Z,79.62
2024-05-09T05:36:12.582Z,79.03
2024-05-09T05:38:44.018Z,79.05
2024-05-09T05:41:15.610Z,79.39
2024-05-09T05:43:47.450Z,78.92
2024-05-09T05:46:18.844Z,79.30
2024-05-09T05:48:50.108Z,79.20
2024-05-09T05:51:21.685Z,79.07
2024-05-09T05:53:52.818Z,79.38
2024-05-09T05:56:24.210Z,78.73
2024-05-09T05:58:55.508Z,79.06
2024-05-09T06:01:27.202Z,78.78
2024-05-09T06:03:58.511Z,79.11
2024-05-09T06:06:30.293Z,78.71
2024-05-09T06:09:01.444Z,78.47
2024-05-09T06:11:33.271Z,78.76
2024-05-09T06:14:06.770Z,78.84
2024-05-09T06:16:38.493Z,78.57
2024-05-09T06:19:09.640Z,78.36
2024-05-09T06:21:40.537Z,78.56
2024-05-09T06:24:11.574Z,78.66
2024-05-09T06:26:46.127Z,78.79
2024-05-09T06:29:17.311Z,78.82
2024-05-09T06:31:48.759Z,78.48
2024-05-09T06:34:34.247Z,78.58
2024-05-09T06:37:06.390Z,78.92
2024-05-09T06:39:37.802Z,79.77
2024-05-09T06:42:11.596Z,79.64
2024-05-09T06:44:42.649Z,80.27
2024-05-09T06:47:14.103Z,79.55
2024-05-09T06:49:45.418Z,80.07
2024-05-09T06:52:20.110Z,79.67
2024-05-09T06:54:52.233Z,79.46
2024-05-09T06:57:24.554Z,79.26
2024-05-09T06:59:57.888Z,80.10
2024-05-09T07:02:29.594Z,79.69
2024-05-09T07:05:00.935Z,79.94
2024-05-09T07:07:32.687Z,79.58
2024-05-09T07:10:04.084Z,80.44
2024-05-09T07:12:38.856Z,79.99
2024-05-09T07:15:10.129Z,80.03
2024-05-09T07:17:44.438Z,80.13
2024-05-09T07:20:27.622Z,80.18
2024-05-09T07:23:05.567Z,80.04
2024-05-09T07:25:37.962Z,80.65
2024-05-09T07:28:16.764Z,81.04
2024-05-09T07:30:48.415Z,80.43
2024-05-09T07:33:24.616Z,81.02
2024-05-09T07:35:59.148Z,80.60
2024-05-09T07:38:30.784Z,80.91
2024-05-09T07:41:02.668Z,81.02
2024-05-09T07:43:34.061Z,81.28
2024-05-09T07:47:04.545Z,81.43
2024-05-09T07:50:35.594Z,81.15
2024-05-09T07:53:20.375Z,81.43
2024-05-09T07:54:41.136Z,81.71
2024-05-09T07:57:12.605Z,81.28
2024-05-09T07:59:45.482Z,81.54
2024-05-09T08:02:17.050Z,81.59
2024-05-09T08:04:48.814Z,81.72
2024-05-09T08:07:21.474Z,81.54
2024-05-09T08:09:53.009Z,81.79
2024-05-09T08:12:24.328Z,81.38
2024-05-09T08:14:57.675Z,82.02
2024-05-09T08:17:28.904Z,81.61
2024-05-09T08:20:02.030Z,81.90
2024-05-09T08:22:37.607Z,81.67
2024-05-09T08:25:10.707Z,81.53
2024-05-09T08:27:43.934Z,82.32
2024-05-09T08:30:21.962Z,82.10
2024-05-09T08:33:05.985Z,81.86
2024-05-09T08:35:38.422Z,82.18
2024-05-09T08:38:11.059Z,82.28
2024-05-09T08:40:43.810Z,82.66
2024-05-09T08:43:18.122Z,82.12
2024-05-09T08:45:52.718Z,82.14
2024-05-09T08:48:25.953Z,81.95
2024-05-09T08:51:00.572Z,82.33
2024-05-09T08:53:31.614Z,82.05
2024-05-09T08:56:04.147Z,82.29
2024-05-09T08:58:38.402Z,82.45
2024-05-09T09:01:10.564Z,82.65
2024-05-09T09:03:43.382Z,82.16
2024-05-09T09:06:16.913Z,83.07
2024-05-09T09:08:49.352Z,82.74
2024-05-09T09:11:23.642Z,82.82
2024-05-09T09:13:55.895Z,82.95
2024-05-09T09:16:38.766Z,82.71
2024-05-09T09:19:10.082Z,82.58
2024-05-09T09:21:41.952Z,82.94
2024-05-09T09:24:13.286Z,84.23
2024-05-09T09:26:47.273Z,84.25
2024-05-09T09:29:22.315Z,84.72
2024-05-09T09:32:09.852Z,85.83
2024-05-09T09:34:42.302Z,85.23
2024-05-09T09:37:13.942Z,85.58
2024-05-09T09:39:48.922Z,85.02
2024-05-09T09:42:22.506Z,84.58
2024-05-09T09:45:02.226Z,85.01
2024-05-09T09:47:41.267Z,85.24
2024-05-09T09:50:20.359Z,84.74
2024-05-09T09:52:56.553Z,84.73
2024-05-09T09:55:29.887Z,84.65
2024-05-09T09:58:02.347Z,85.05
2024-05-09T10:00:34.447Z,85.06
2024-05-09T10:03:06.681Z,85.23
2024-05-09T10:05:39.818Z,85.55
2024-05-09T10:08:13.942Z,85.86
2024-05-09T10:10:49.713Z,86.12
2024-05-09T10:13:21.544Z,85.87
2024-05-09T10:15:56.106Z,85.89
2024-05-09T10:18:41.893Z,85.82
2024-05-09T10:21:22.892Z,86.05
2024-05-09T10:24:07.002Z,87.17
2024-05-09T10:26:40.126Z,85.49
2024-05-09T10:29:19.386Z,86.07
2024-05-09T10:31:50.658Z,86.32
2024-05-09T10:34:24.834Z,85.71
2024-05-09T10:36:56.590Z,85.82
2024-05-09T10:39:28.889Z,85.88
2024-05-09T10:42:00.229Z,86.70
2024-05-09T10:44:32.098Z,86.86
2024-05-09T10:47:04.092Z,86.01
2024-05-09T10:49:35.651Z,86.01
2024-05-09T10:52:09.904Z,86.26
2024-05-09T10:54:42.195Z,86.38
2024-05-09T10:57:13.338Z,86.75
2024-05-09T10:59:44.768Z,86.50
2024-05-09T11:02:17.852Z,87.33
2024-05-09T11:04:49.552Z,86.87
2024-05-09T11:07:23.105Z,88.03
2024-05-09T11:09:55.439Z,88.30
2024-05-09T11:12:26.683Z,87.54
2024-05-09T11:14:58.088Z,87.70
2024-05-09T11:17:29.344Z,88.74
2024-05-09T11:20:01.719Z,87.91
2024-05-09T11:22:36.143Z,88.17
2024-05-09T11:25:08.059Z,88.22
2024-05-09T11:27:38.602Z,90.52
2024-05-09T11:30:27.023Z,88.62
2024-05-09T11:33:03.095Z,88.88
2024-05-09T11:36:06.853Z,90.14
2024-05-09T11:38:38.126Z,89.15
2024-05-09T11:41:09.079Z,90.08
2024-05-09T11:43:40.177Z,89.23
2024-05-09T11:46:11.877Z,89.41
2024-05-09T11:48:43.530Z,90.06
2024-05-09T11:51:14.939Z,89.48
2024-05-09T11:53:46.688Z,89.98
2024-05-09T11:56:18.791Z,90.84
2024-05-09T11:58:49.879Z,89.45
2024-05-09T12:01:23.086Z,89.48
2024-05-09T12:03:56.347Z,89.08
2024-05-09T12:06:28.128Z,89.10
2024-05-09T12:08:59.472Z,90.11
2024-05-09T12:11:32.090Z,90.51
2024-05-09T12:14:03.387Z,89.34
2024-05-09T12:16:35.470Z,89.88
2024-05-09T12:19:06.782Z,90.10
2024-05-09T12:21:38.314Z,89.33
2024-05-09T12:24:09.457Z,89.52
2024-05-09T12:26:41.247Z,90.51
2024-05-09T12:29:12.410Z,90.39
2024-05-09T12:31:43.425Z,90.94
2024-05-09T12:34:15.191Z,90.46
2024-05-09T12:36:46.727Z,90.72
2024-05-09T12:39:17.999Z,90.16
2024-05-09T12:41:51.002Z,90.63
2024-05-09T12:44:22.011Z,90.14
2024-05-09T12:46:58.469Z,91.19
2024-05-09T12:49:32.415Z,90.74
2024-05-09T12:52:04.146Z,90.16
2024-05-09T12:54:37.059Z,89.93
2024-05-09T12:57:08.696Z,90.36
2024-05-09T12:59:39.920Z,89.09
2024-05-09T13:02:11.518Z,86.40
2024-05-09T13:04:43.153Z,84.10
2024-05-09T13:07:14.845Z,81.03
2024-05-09T13:09:46.203Z,79.97
2024-05-09T13:12:17.057Z,78.67
2024-05-09T13:14:48.363Z,78.77
2024-05-09T13:17:20.562Z,74.94
2024-05-09T13:19:51.758Z,76.70
2024-05-09T13:22:23.272Z,76.85
2024-05-09T13:25:00.314Z,73.72
2024-05-09T13:27:34.207Z,72.81
2024-05-09T13:30:07.791Z,74.31
2024-05-09T13:32:43.462Z,72.86
2024-05-09T13:35:14.704Z,72.80
2024-05-09T13:37:46.196Z,72.42
2024-05-09T13:40:26.648Z,72.09
2024-05-09T13:43:01.556Z,70.27
2024-05-09T13:45:33.212Z,71.56
2024-05-09T13:48:07.835Z,70.81
2024-05-09T13:50:40.546Z,69.22
2024-05-09T13:53:12.016Z,68.74
2024-05-09T13:55:49.284Z,69.70
2024-05-09T13:58:21.228Z,69.04
2024-05-09T14:00:52.943Z,68.09
2024-05-09T14:03:25.943Z,68.06
2024-05-09T14:05:57.835Z,69.11
2024-05-09T14:08:29.679Z,67.81
2024-05-09T14:11:01.137Z,69.07
2024-05-09T14:13:32.115Z,70.24
2024-05-09T14:16:03.564Z,70.91
2024-05-09T14:18:35.660Z,69.83
2024-05-09T14:21:08.256Z,70.54
2024-05-09T14:23:39.931Z,68.82
2024-05-09T14:26:11.190Z,69.27
2024-05-09T14:28:42.712Z,69.36
2024-05-09T14:31:14.141Z,68.38
2024-05-09T14:33:45.264Z,66.64
2024-05-09T14:36:17.659Z,68.64
2024-05-09T14:38:49.105Z,67.14
2024-05-09T14:41:20.258Z,68.15
2024-05-09T14:43:52.894Z,68.78
2024-05-09T14:46:24.400Z,68.49
2024-05-09T14:48:59.823Z,69.19
2024-05-09T14:51:33.667Z,67.99
2024-05-09T14:54:04.616Z,68.49
2024-05-09T14:56:36.127Z,69.59
2024-05-09T14:59:11.323Z,67.05
2024-05-09T15:01:45.305Z,67.51
2024-05-09T15:04:17.649Z,68.00
2024-05-09T15:06:50.116Z,67.72
2024-05-09T15:09:22.140Z,65.21
2024-05-09T15:11:54.035Z,66.19
2024-05-09T15:14:25.432Z,66.14
2024-05-09T15:16:58.511Z,66.20
2024-05-09T15:19:32.929Z,65.53
2024-05-09T15:22:07.513Z,64.89
2024-05-09T15:24:42.203Z,65.54
2024-05-09T15:27:14.942Z,66.29
2024-05-09T15:29:46.427Z,65.63
2024-05-09T15:32:17.523Z,64.75
2024-05-09T15:34:48.959Z,66.36
2024-05-09T15:37:20.583Z,65.62
2024-05-09T15:39:51.910Z,64.88
2024-05-09T15:42:23.134Z,64.94
2024-05-09T15:44:54.920Z,66.39
2024-05-09T15:47:26.146Z,64.74
2024-05-09T15:50:00.304Z,65.74
2024-05-09T15:52:32.013Z,65.29
2024-05-09T15:55:03.138Z,64.89
2024-05-09T15:57:35.751Z,65.49
2024-05-09T16:00:12.246Z,65.31
2024-05-09T16:02:49.828Z,66.11
2024-05-09T16:05:21.533Z,65.72
2024-05-09T16:07:53.048Z,64.93
2024-05-09T16:10:32.578Z,64.93
2024-05-09T16:13:11.270Z,65.41
2024-05-09T16:15:45.345Z,64.56
2024-05-09T16:18:16.916Z,65.12
2024-05-09T16:20:50.098Z,65.77
2024-05-09T16:23:23.033Z,64.57
2024-05-09T16:25:54.738Z,65.20
2024-05-09T16:28:27.218Z,65.17
2024-05-09T16:30:59.588Z,65.55
2024-05-09T16:33:30.412Z,63.97
2024-05-09T16:36:02.021Z,65.78
2024-05-09T16:38:33.145Z,65.33
2024-05-09T16:41:06.293Z,64.20
2024-05-09T16:43:39.993Z,64.74
2024-05-09T16:46:11.738Z,64.03
2024-05-09T16:48:46.862Z,64.05
2024-05-09T16:51:18.442Z,65.73
2024-05-09T16:53:49.800Z,65.00
2024-05-09T16:56:25.103Z,64.78
2024-05-09T16:58:59.712Z,64.74
2024-05-09T17:01:32.282Z,65.07
2024-05-09T17:04:03.958Z,63.76
2024-05-09T17:06:35.786Z,63.88
2024-05-09T17:09:11.687Z,64.63
2024-05-09T17:11:47.661Z,65.06
2024-05-09T17:14:18.303Z,63.67
2024-05-09T17:16:49.745Z,64.51
2024-05-09T17:19:21.010Z,65.03
2024-05-09T17:21:52.235Z,63.54
2024-05-09T17:24:23.347Z,64.92
2024-05-09T17:26:54.901Z,64.37
2024-05-09T17:29:26.114Z,64.17
2024-05-09T17:31:57.406Z,64.78
2024-05-09T17:34:28.744Z,64.71
2024-05-09T17:37:01.713Z,64.24
2024-05-09T17:39:33.181Z,64.51
2024-05-09T17:42:04.782Z,63.93
2024-05-09T17:44:35.898Z,63.95
2024-05-09T17:47:07.394Z,63.28
2024-05-09T17:49:38.687Z,63.57
2024-05-09T17:52:10.104Z,63.67
2024-05-09T17:54:41.575Z,63.87
2024-05-09T17:57:13.071Z,64.04
2024-05-09T17:59:44.620Z,64.29
2024-05-09T18:02:15.963Z,63.57
2024-05-09T18:04:47.252Z,63.91
2024-05-09T18:07:18.707Z,64.19
2024-05-09T18:09:49.825Z,63.63
2024-05-09T18:12:21.368Z,63.03
2024-05-09T18:14:52.387Z,63.77
2024-05-09T18:17:25.644Z,62.80
2024-05-09T18:19:57.002Z,63.62
2024-05-09T18:22:28.362Z,63.09
2024-05-09T18:24:59.515Z,62.80
2024-05-09T18:27:31.121Z,63.27
2024-05-09T18:30:02.429Z,62.94
2024-05-09T18:32:34.364Z,64.06
2024-05-09T18:35:05.560Z,62.73
2024-05-09T18:37:37.071Z,63.85
2024-05-09T18:40:12.187Z,62.57
2024-05-09T18:42:49.554Z,62.72
2024-05-09T18:45:20.546Z,62.71
2024-05-09T18:47:51.948Z,62.21
2024-05-09T18:50:31.928Z,62.42
2024-05-09T18:53:13.040Z,62.84
2024-05-09T18:55:45.091Z,62.11
2024-05-09T18:58:18.606Z,62.47
2024-05-09T19:00:52.064Z,62.56
2024-05-09T19:03:25.500Z,62.86
2024-05-09T19:05:56.841Z,63.32
2024-05-09T19:08:28.403Z,63.12
2024-05-09T19:11:00.429Z,62.16
2024-05-09T19:13:32.020Z,62.90
2024-05-09T19:16:03.305Z,62.11
2024-05-09T19:18:34.883Z,63.19
2024-05-09T19:21:06.034Z,62.81
2024-05-09T19:23:38.482Z,62.91
2024-05-09T19:26:15.330Z,62.20
2024-05-09T19:28:46.873Z,62.24
2024-05-09T19:31:17.907Z,61.80
2024-05-09T19:33:49.413Z,62.66
2024-05-09T19:36:23.433Z,63.00
2024-05-09T19:38:54.592Z,62.13
2024-05-09T19:41:25.567Z,62.69
2024-05-09T19:43:56.913Z,62.08
2024-05-09T19:46:27.905Z,63.09
2024-05-09T19:48:59.727Z,62.04
2024-05-09T19:51:30.914Z,62.28
2024-05-09T19:54:02.395Z,61.62
2024-05-09T19:56:33.524Z,62.42
2024-05-09T19:59:05.520Z,61.51
2024-05-09T20:01:37.102Z,62.27
2024-05-09T20:04:08.478Z,61.67
2024-05-09T20:06:39.852Z,62.86
2024-05-09T20:09:11.062Z,61.85
2024-05-09T20:11:41.961Z,62.36
2024-05-09T20:14:14.114Z,62.86
2024-05-09T20:16:46.627Z,61.60
2024-05-09T20:19:18.247Z,61.94
2024-05-09T20:21:49.404Z,62.60
2024-05-09T20:24:20.528Z,62.10
2024-05-09T20:26:51.441Z,62.73
2024-05-09T20:29:22.805Z,62.97
2024-05-09T20:31:53.716Z,62.89
2024-05-09T20:34:25.028Z,62.55
2024-05-09T20:36:56.063Z,61.75
2024-05-09T20:39:27.823Z,61.73
2024-05-09T20:41:59.306Z,62.21
2024-05-09T20:44:30.162Z,61.46
2024-05-09T20:47:00.958Z,62.46
2024-05-09T20:49:32.397Z,62.53
2024-05-09T20:52:03.270Z,62.65
2024-05-09T20:54:34.522Z,61.81
2024-05-09T20:57:05.910Z,62.44
2024-05-09T20:59:38.858Z,61.62
2024-05-09T21:02:10.251Z,61.57
2024-05-09T21:04:41.861Z,61.75
2024-05-09T21:07:12.832Z,62.51
2024-05-09T21:09:43.993Z,61.81
2024-05-09T21:12:14.901Z,61.41
2024-05-09T21:14:46.002Z,62.23
2024-05-09T21:17:16.925Z,61.81
2024-05-09T21:19:48.064Z,61.60
2024-05-09T21:22:18.964Z,61.99
2024-05-09T21:24:50.139Z,61.24
2024-05-09T21:27:21.070Z,61.76
2024-05-09T21:29:52.164Z,61.83
2024-05-09T21:32:23.253Z,62.26
2024-05-09T21:34:54.406Z,62.02
2024-05-09T21:37:25.415Z,61.53
2024-05-09T21:39:56.919Z,60.84
2024-05-09T21:42:28.024Z,61.05
2024-05-09T21:44:59.097Z,61.56
2024-05-09T21:47:30.152Z,61.11
2024-05-09T21:50:01.295Z,60.89
2024-05-09T21:52:33.860Z,61.41
2024-05-09T21:55:05.080Z,60.78
2024-05-09T21:57:36.286Z,61.17
2024-05-09T22:00:28.140Z,61.61
2024-05-09T22:03:07.829Z,61.20
2024-05-09T22:05:42.907Z,61.05
2024-05-09T22:08:13.864Z,60.61
2024-05-09T22:10:45.451Z,60.62
2024-05-09T22:13:18.158Z,61.07
2024-05-09T22:15:49.527Z,61.58
2024-05-09T22:18:20.755Z,61.22
2024-05-09T22:20:51.915Z,61.99
2024-05-09T22:23:23.081Z,61.82
2024-05-09T22:25:54.288Z,61.08
2024-05-09T22:28:25.273Z,60.85
2024-05-09T22:30:56.843Z,61.46
2024-05-09T22:33:27.893Z,61.70
2024-05-09T22:35:58.985Z,61.46
2024-05-09T22:38:29.836Z,60.48
2024-05-09T22:41:01.185Z,61.12
2024-05-09T22:43:32.211Z,61.34
2024-05-09T22:46:04.831Z,61.48
2024-05-09T22:48:36.102Z,60.71
2024-05-09T22:51:07.660Z,61.54
2024-05-09T22:53:38.475Z,60.64
2024-05-09T22:56:09.799Z,60.86
2024-05-09T22:58:41.210Z,61.06
2024-05-09T23:01:17.364Z,60.79
2024-05-09T23:03:49.549Z,62.05
2024-05-09T23:06:20.483Z,60.25
2024-05-09T23:08:51.305Z,61.04
2024-05-09T23:11:22.393Z,61.62
2024-05-09T23:13:53.384Z,61.31
2024-05-09T23:16:24.520Z,61.97
2024-05-09T23:18:55.983Z,61.49
2024-05-09T23:21:27.269Z,61.14
2024-05-09T23:23:58.098Z,61.51
2024-05-09T23:26:29.176Z,61.55
2024-05-09T23:29:02.921Z,62.57
2024-05-09T23:31:34.074Z,64.35
2024-05-09T23:34:05.106Z,65.03
2024-05-09T23:36:36.384Z,64.23
2024-05-09T23:39:07.666Z,65.55
2024-05-09T23:41:38.821Z,65.63
2024-05-09T23:44:09.707Z,65.71
2024-05-09T23:46:40.978Z,68.54
2024-05-09T23:49:12.761Z,73.10
2024-05-09T23:51:44.199Z,74.73
2024-05-09T23:54:15.112Z,76.91
2024-05-09T23:56:46.649Z,79.49
2024-05-09T23:59:17.752Z,80.09
